sensor_id;sensor_type;location;lat;lon;timestamp;pressure;altitude;pressure_sealevel;temperature;humidity
40117;BME280;25829;50.228;18.936;2022-07-25T00:07:31;98836.06;;;14.48;63.69
40117;BME280;25829;50.228;18.936;2022-07-25T00:10:32;98849.88;;;14.38;63.50
40117;BME280;25829;50.228;18.936;2022-07-25T00:13:33;98843.03;;;14.30;63.77
40117;BME280;25829;50.228;18.936;2022-07-25T00:16:34;98838.53;;;14.31;63.54
40117;BME280;25829;50.228;18.936;2022-07-25T00:19:34;98836.31;;;14.28;63.71
40117;BME280;25829;50.228;18.936;2022-07-25T00:22:35;98829.16;;;14.28;63.88
40117;BME280;25829;50.228;18.936;2022-07-25T00:25:36;98837.13;;;14.28;63.87
40117;BME280;25829;50.228;18.936;2022-07-25T00:28:37;98827.75;;;14.26;63.59
40117;BME280;25829;50.228;18.936;2022-07-25T00:31:37;98825.75;;;14.21;63.83
40117;BME280;25829;50.228;18.936;2022-07-25T00:34:38;98823.91;;;14.22;63.93
40117;BME280;25829;50.228;18.936;2022-07-25T00:37:39;98814.91;;;14.23;63.99
40117;BME280;25829;50.228;18.936;2022-07-25T00:40:40;98821.03;;;14.23;63.68
40117;BME280;25829;50.228;18.936;2022-07-25T00:43:45;98806.94;;;14.23;64.12
40117;BME280;25829;50.228;18.936;2022-07-25T00:46:46;98818.22;;;14.18;63.77
40117;BME280;25829;50.228;18.936;2022-07-25T00:49:46;98816.31;;;14.07;63.75
40117;BME280;25829;50.228;18.936;2022-07-25T00:52:47;98821.69;;;14.00;64.01
40117;BME280;25829;50.228;18.936;2022-07-25T00:55:48;98831.50;;;14.00;64.12
40117;BME280;25829;50.228;18.936;2022-07-25T00:58:49;98820.66;;;14.01;64.44
40117;BME280;25829;50.228;18.936;2022-07-25T01:01:50;98821.47;;;14.02;64.54
40117;BME280;25829;50.228;18.936;2022-07-25T01:04:50;98817.19;;;14.01;64.41
40117;BME280;25829;50.228;18.936;2022-07-25T01:07:51;98816.38;;;14.00;64.54
40117;BME280;25829;50.228;18.936;2022-07-25T01:10:53;98814.41;;;13.96;64.76
40117;BME280;25829;50.228;18.936;2022-07-25T01:13:54;98812.56;;;13.96;64.80
40117;BME280;25829;50.228;18.936;2022-07-25T01:16:55;98808.72;;;13.92;64.61
40117;BME280;25829;50.228;18.936;2022-07-25T01:19:55;98802.47;;;13.86;65.21
40117;BME280;25829;50.228;18.936;2022-07-25T01:22:58;98801.41;;;13.87;65.19
40117;BME280;25829;50.228;18.936;2022-07-25T01:25:59;98805.72;;;13.88;65.03
40117;BME280;25829;50.228;18.936;2022-07-25T01:28:59;98796.91;;;13.88;65.13
40117;BME280;25829;50.228;18.936;2022-07-25T01:32:00;98790.00;;;13.87;64.98
40117;BME280;25829;50.228;18.936;2022-07-25T01:35:02;98799.81;;;13.86;65.42
40117;BME280;25829;50.228;18.936;2022-07-25T01:38:03;98798.41;;;13.84;65.00
40117;BME280;25829;50.228;18.936;2022-07-25T01:41:04;98790.69;;;13.82;65.53
40117;BME280;25829;50.228;18.936;2022-07-25T01:44:05;98783.81;;;13.75;65.33
40117;BME280;25829;50.228;18.936;2022-07-25T01:47:05;98787.84;;;13.59;65.29
40117;BME280;25829;50.228;18.936;2022-07-25T01:50:06;98787.03;;;13.58;65.25
40117;BME280;25829;50.228;18.936;2022-07-25T01:53:07;98781.31;;;13.61;65.39
40117;BME280;25829;50.228;18.936;2022-07-25T01:56:08;98785.34;;;13.64;65.42
40117;BME280;25829;50.228;18.936;2022-07-25T01:59:09;98774.53;;;13.65;65.39
40117;BME280;25829;50.228;18.936;2022-07-25T02:02:10;98784.91;;;13.67;65.42
40117;BME280;25829;50.228;18.936;2022-07-25T02:05:12;98780.63;;;13.66;65.58
40117;BME280;25829;50.228;18.936;2022-07-25T02:08:13;98775.78;;;13.63;65.57
40117;BME280;25829;50.228;18.936;2022-07-25T02:11:14;98774.34;;;13.60;65.71
40117;BME280;25829;50.228;18.936;2022-07-25T02:14:15;98775.19;;;13.61;65.92
40117;BME280;25829;50.228;18.936;2022-07-25T02:17:16;98775.19;;;13.61;65.60
40117;BME280;25829;50.228;18.936;2022-07-25T02:20:17;98775.84;;;13.56;65.66
40117;BME280;25829;50.228;18.936;2022-07-25T02:23:18;98780.63;;;13.48;65.49
40117;BME280;25829;50.228;18.936;2022-07-25T02:26:19;98775.75;;;13.45;65.65
40117;BME280;25829;50.228;18.936;2022-07-25T02:29:20;98785.91;;;13.48;66.00
40117;BME280;25829;50.228;18.936;2022-07-25T02:32:20;98782.47;;;13.47;65.84
40117;BME280;25829;50.228;18.936;2022-07-25T02:35:21;98784.00;;;13.36;65.67
40117;BME280;25829;50.228;18.936;2022-07-25T02:38:22;98787.66;;;13.35;66.08
40117;BME280;25829;50.228;18.936;2022-07-25T02:41:23;98790.91;;;13.37;66.13
40117;BME280;25829;50.228;18.936;2022-07-25T02:44:24;98788.81;;;13.39;65.96
40117;BME280;25829;50.228;18.936;2022-07-25T02:47:24;98793.19;;;13.34;65.77
40117;BME280;25829;50.228;18.936;2022-07-25T02:50:25;98798.31;;;13.29;65.93
40117;BME280;25829;50.228;18.936;2022-07-25T02:53:26;98797.13;;;13.25;65.95
40117;BME280;25829;50.228;18.936;2022-07-25T02:56:27;98792.63;;;13.25;66.01
40117;BME280;25829;50.228;18.936;2022-07-25T02:59:27;98796.69;;;13.28;66.18
40117;BME280;25829;50.228;18.936;2022-07-25T03:02:28;98792.19;;;13.28;66.19
40117;BME280;25829;50.228;18.936;2022-07-25T03:05:29;98781.16;;;13.31;66.31
40117;BME280;25829;50.228;18.936;2022-07-25T03:08:30;98778.75;;;13.30;66.35
40117;BME280;25829;50.228;18.936;2022-07-25T03:11:30;98786.25;;;13.33;66.15
40117;BME280;25829;50.228;18.936;2022-07-25T03:14:33;98792.38;;;13.33;66.42
40117;BME280;25829;50.228;18.936;2022-07-25T03:17:34;98792.94;;;13.35;66.30
40117;BME280;25829;50.228;18.936;2022-07-25T03:20:34;98783.16;;;13.36;66.16
40117;BME280;25829;50.228;18.936;2022-07-25T03:23:35;98786.03;;;13.34;66.00
40117;BME280;25829;50.228;18.936;2022-07-25T03:26:36;98776.69;;;13.32;66.03
40117;BME280;25829;50.228;18.936;2022-07-25T03:29:37;98777.09;;;13.29;66.02
40117;BME280;25829;50.228;18.936;2022-07-25T03:32:37;98783.44;;;13.28;66.37
40117;BME280;25829;50.228;18.936;2022-07-25T03:35:39;98773.06;;;13.26;66.68
40117;BME280;25829;50.228;18.936;2022-07-25T03:38:40;98761.22;;;13.29;66.38
40117;BME280;25829;50.228;18.936;2022-07-25T03:41:41;98772.97;;;13.33;66.38
40117;BME280;25829;50.228;18.936;2022-07-25T03:44:42;98762.47;;;13.26;66.41
40117;BME280;25829;50.228;18.936;2022-07-25T03:47:42;98764.81;;;13.09;66.52
40117;BME280;25829;50.228;18.936;2022-07-25T03:50:43;98763.84;;;13.04;66.70
40117;BME280;25829;50.228;18.936;2022-07-25T03:53:44;98771.13;;;13.08;67.01
40117;BME280;25829;50.228;18.936;2022-07-25T03:57:03;98763.13;;;13.15;66.88
40117;BME280;25829;50.228;18.936;2022-07-25T04:00:06;98758.25;;;13.18;66.63
40117;BME280;25829;50.228;18.936;2022-07-25T04:03:08;98757.59;;;13.23;66.72
40117;BME280;25829;50.228;18.936;2022-07-25T04:06:08;98766.50;;;13.29;67.05
40117;BME280;25829;50.228;18.936;2022-07-25T04:09:10;98770.81;;;13.30;67.15
40117;BME280;25829;50.228;18.936;2022-07-25T04:12:11;98770.13;;;13.34;67.12
40117;BME280;25829;50.228;18.936;2022-07-25T04:15:12;98766.38;;;13.42;67.67
40117;BME280;25829;50.228;18.936;2022-07-25T04:18:13;98768.97;;;13.49;67.06
40117;BME280;25829;50.228;18.936;2022-07-25T04:21:13;98772.66;;;13.48;67.09
40117;BME280;25829;50.228;18.936;2022-07-25T04:24:14;98765.91;;;13.52;67.32
40117;BME280;25829;50.228;18.936;2022-07-25T04:27:15;98761.34;;;13.59;67.34
40117;BME280;25829;50.228;18.936;2022-07-25T04:30:16;98764.59;;;13.61;67.49
40117;BME280;25829;50.228;18.936;2022-07-25T04:33:17;98769.06;;;13.60;67.41
40117;BME280;25829;50.228;18.936;2022-07-25T04:36:18;98774.09;;;13.69;67.76
40117;BME280;25829;50.228;18.936;2022-07-25T04:39:19;98771.22;;;13.70;68.09
40117;BME280;25829;50.228;18.936;2022-07-25T04:42:20;98770.94;;;13.78;67.73
40117;BME280;25829;50.228;18.936;2022-07-25T04:45:21;98776.91;;;13.92;67.91
40117;BME280;25829;50.228;18.936;2022-07-25T04:48:21;98774.91;;;14.06;67.87
40117;BME280;25829;50.228;18.936;2022-07-25T04:51:22;98772.06;;;14.19;67.89
40117;BME280;25829;50.228;18.936;2022-07-25T04:54:23;98770.69;;;14.35;67.92
40117;BME280;25829;50.228;18.936;2022-07-25T04:57:24;98766.00;;;14.49;67.59
40117;BME280;25829;50.228;18.936;2022-07-25T05:00:34;98760.06;;;14.65;67.28
40117;BME280;25829;50.228;18.936;2022-07-25T05:03:34;98754.56;;;14.78;66.92
40117;BME280;25829;50.228;18.936;2022-07-25T05:06:35;98746.16;;;14.93;66.86
40117;BME280;25829;50.228;18.936;2022-07-25T05:09:36;98755.75;;;15.06;67.02
40117;BME280;25829;50.228;18.936;2022-07-25T05:12:37;98754.63;;;15.14;66.75
40117;BME280;25829;50.228;18.936;2022-07-25T05:15:38;98749.31;;;15.25;66.61
40117;BME280;25829;50.228;18.936;2022-07-25T05:18:39;98745.66;;;15.38;66.13
40117;BME280;25829;50.228;18.936;2022-07-25T05:21:40;98746.69;;;15.49;66.12
40117;BME280;25829;50.228;18.936;2022-07-25T05:24:41;98744.00;;;15.61;66.04
40117;BME280;25829;50.228;18.936;2022-07-25T05:27:42;98743.75;;;15.74;65.80
40117;BME280;25829;50.228;18.936;2022-07-25T05:30:42;98735.25;;;15.89;65.58
40117;BME280;25829;50.228;18.936;2022-07-25T05:33:43;98740.56;;;16.00;65.36
40117;BME280;25829;50.228;18.936;2022-07-25T05:36:44;98735.69;;;16.09;64.84
40117;BME280;25829;50.228;18.936;2022-07-25T05:39:48;98728.69;;;16.20;64.74
40117;BME280;25829;50.228;18.936;2022-07-25T05:42:50;98730.31;;;16.33;64.54
40117;BME280;25829;50.228;18.936;2022-07-25T05:45:51;98725.97;;;16.43;64.10
40117;BME280;25829;50.228;18.936;2022-07-25T05:48:52;98717.69;;;16.57;63.99
40117;BME280;25829;50.228;18.936;2022-07-25T05:51:53;98717.94;;;16.72;63.72
40117;BME280;25829;50.228;18.936;2022-07-25T05:54:54;98717.13;;;16.88;63.22
40117;BME280;25829;50.228;18.936;2022-07-25T05:57:54;98716.88;;;17.07;62.76
40117;BME280;25829;50.228;18.936;2022-07-25T06:00:56;98711.56;;;17.24;62.16
40117;BME280;25829;50.228;18.936;2022-07-25T06:03:57;98717.13;;;17.39;61.31
40117;BME280;25829;50.228;18.936;2022-07-25T06:06:58;98712.25;;;17.53;60.33
40117;BME280;25829;50.228;18.936;2022-07-25T06:09:59;98719.06;;;17.65;59.47
40117;BME280;25829;50.228;18.936;2022-07-25T06:13:00;98710.38;;;17.75;58.60
40117;BME280;25829;50.228;18.936;2022-07-25T06:16:01;98703.56;;;17.84;58.46
40117;BME280;25829;50.228;18.936;2022-07-25T06:19:01;98709.56;;;17.97;57.73
40117;BME280;25829;50.228;18.936;2022-07-25T06:22:02;98705.44;;;18.06;57.79
40117;BME280;25829;50.228;18.936;2022-07-25T06:25:03;98694.59;;;18.17;57.98
40117;BME280;25829;50.228;18.936;2022-07-25T06:28:04;98694.50;;;18.34;57.47
40117;BME280;25829;50.228;18.936;2022-07-25T06:31:05;98684.28;;;18.53;57.19
40117;BME280;25829;50.228;18.936;2022-07-25T06:34:08;98688.75;;;18.80;57.02
40117;BME280;25829;50.228;18.936;2022-07-25T06:37:09;98689.25;;;19.04;55.68
40117;BME280;25829;50.228;18.936;2022-07-25T06:40:10;98688.34;;;19.30;55.86
40117;BME280;25829;50.228;18.936;2022-07-25T06:43:11;98678.56;;;19.51;55.81
40117;BME280;25829;50.228;18.936;2022-07-25T06:46:12;98687.22;;;19.69;54.80
40117;BME280;25829;50.228;18.936;2022-07-25T06:49:13;98676.28;;;19.80;54.87
40117;BME280;25829;50.228;18.936;2022-07-25T06:52:13;98671.00;;;19.96;54.63
40117;BME280;25829;50.228;18.936;2022-07-25T06:55:15;98668.06;;;20.02;53.67
40117;BME280;25829;50.228;18.936;2022-07-25T06:58:16;98675.28;;;20.07;53.10
40117;BME280;25829;50.228;18.936;2022-07-25T07:01:17;98670.50;;;20.09;53.38
40117;BME280;25829;50.228;18.936;2022-07-25T07:04:17;98670.50;;;20.24;53.57
40117;BME280;25829;50.228;18.936;2022-07-25T07:07:18;98679.38;;;20.35;52.86
40117;BME280;25829;50.228;18.936;2022-07-25T07:10:20;98675.63;;;20.41;52.43
40117;BME280;25829;50.228;18.936;2022-07-25T07:13:21;98668.69;;;20.45;52.40
40117;BME280;25829;50.228;18.936;2022-07-25T07:16:23;98674.06;;;20.56;52.40
40117;BME280;25829;50.228;18.936;2022-07-25T07:19:24;98664.94;;;20.67;52.13
40117;BME280;25829;50.228;18.936;2022-07-25T07:22:28;98663.88;;;20.78;51.35
40117;BME280;25829;50.228;18.936;2022-07-25T07:25:29;98666.81;;;20.92;50.89
40117;BME280;25829;50.228;18.936;2022-07-25T07:28:31;98662.72;;;21.15;50.63
40117;BME280;25829;50.228;18.936;2022-07-25T07:31:32;98658.66;;;21.48;50.11
40117;BME280;25829;50.228;18.936;2022-07-25T07:34:33;98656.59;;;21.89;50.06
40117;BME280;25829;50.228;18.936;2022-07-25T07:37:34;98653.16;;;22.28;50.15
40117;BME280;25829;50.228;18.936;2022-07-25T07:40:35;98653.72;;;22.59;49.13
40117;BME280;25829;50.228;18.936;2022-07-25T07:43:35;98651.69;;;22.80;48.15
40117;BME280;25829;50.228;18.936;2022-07-25T07:46:36;98649.56;;;23.06;47.99
40117;BME280;25829;50.228;18.936;2022-07-25T07:49:37;98643.78;;;23.18;46.61
40117;BME280;25829;50.228;18.936;2022-07-25T07:52:37;98639.94;;;23.24;46.42
40117;BME280;25829;50.228;18.936;2022-07-25T07:55:38;98638.47;;;23.37;46.79
40117;BME280;25829;50.228;18.936;2022-07-25T07:58:45;98638.41;;;23.42;45.14
40117;BME280;25829;50.228;18.936;2022-07-25T08:01:49;98636.53;;;23.43;45.41
40117;BME280;25829;50.228;18.936;2022-07-25T08:04:50;98626.56;;;23.43;44.50
40117;BME280;25829;50.228;18.936;2022-07-25T08:07:51;98635.59;;;23.52;43.18
40117;BME280;25829;50.228;18.936;2022-07-25T08:10:52;98629.88;;;23.59;44.01
40117;BME280;25829;50.228;18.936;2022-07-25T08:13:53;98622.94;;;23.72;44.96
40117;BME280;25829;50.228;18.936;2022-07-25T08:16:55;98630.03;;;23.87;44.26
40117;BME280;25829;50.228;18.936;2022-07-25T08:19:56;98617.97;;;24.03;44.00
40117;BME280;25829;50.228;18.936;2022-07-25T08:22:57;98620.66;;;24.22;43.21
40117;BME280;25829;50.228;18.936;2022-07-25T08:25:58;98631.19;;;24.37;43.12
40117;BME280;25829;50.228;18.936;2022-07-25T08:28:59;98631.38;;;24.60;42.67
40117;BME280;25829;50.228;18.936;2022-07-25T08:32:00;98633.25;;;24.92;42.75
40117;BME280;25829;50.228;18.936;2022-07-25T08:35:00;98629.81;;;25.33;41.27
40117;BME280;25829;50.228;18.936;2022-07-25T08:38:03;98632.84;;;25.81;39.03
40117;BME280;25829;50.228;18.936;2022-07-25T08:41:04;98629.44;;;26.26;39.41
40117;BME280;25829;50.228;18.936;2022-07-25T08:44:07;98626.06;;;26.96;38.95
40117;BME280;25829;50.228;18.936;2022-07-25T08:47:08;98628.41;;;27.69;37.86
40117;BME280;25829;50.228;18.936;2022-07-25T08:50:13;98620.81;;;28.40;38.00
40117;BME280;25829;50.228;18.936;2022-07-25T08:53:14;98621.34;;;29.19;37.63
40117;BME280;25829;50.228;18.936;2022-07-25T08:56:20;98615.69;;;29.92;36.84
40117;BME280;25829;50.228;18.936;2022-07-25T08:59:21;98619.06;;;30.31;35.72
40117;BME280;25829;50.228;18.936;2022-07-25T09:02:21;98610.56;;;30.78;35.49
40117;BME280;25829;50.228;18.936;2022-07-25T09:05:23;98608.25;;;31.01;34.80
40117;BME280;25829;50.228;18.936;2022-07-25T09:08:25;98608.53;;;30.87;34.28
40117;BME280;25829;50.228;18.936;2022-07-25T09:11:36;98602.94;;;30.59;33.54
40117;BME280;25829;50.228;18.936;2022-07-25T09:14:41;98600.66;;;30.49;32.44
40117;BME280;25829;50.228;18.936;2022-07-25T09:17:49;98601.72;;;30.69;32.76
40117;BME280;25829;50.228;18.936;2022-07-25T09:20:59;98601.44;;;31.07;32.86
40117;BME280;25829;50.228;18.936;2022-07-25T09:24:14;98597.31;;;31.38;29.95
40117;BME280;25829;50.228;18.936;2022-07-25T09:27:15;98598.88;;;31.75;33.53
40117;BME280;25829;50.228;18.936;2022-07-25T09:30:18;98594.31;;;32.20;33.09
40117;BME280;25829;50.228;18.936;2022-07-25T09:33:22;98583.59;;;32.71;31.58
40117;BME280;25829;50.228;18.936;2022-07-25T09:36:33;98584.28;;;32.99;28.70
40117;BME280;25829;50.228;18.936;2022-07-25T09:39:48;98581.91;;;33.14;27.85
40117;BME280;25829;50.228;18.936;2022-07-25T09:42:49;98584.72;;;33.17;30.56
40117;BME280;25829;50.228;18.936;2022-07-25T09:45:51;98583.13;;;33.32;29.77
40117;BME280;25829;50.228;18.936;2022-07-25T09:48:56;98576.44;;;33.14;28.37
40117;BME280;25829;50.228;18.936;2022-07-25T09:51:57;98579.78;;;33.23;30.57
40117;BME280;25829;50.228;18.936;2022-07-25T09:55:01;98565.19;;;33.51;30.46
40117;BME280;25829;50.228;18.936;2022-07-25T09:58:04;98568.22;;;33.65;30.48
40117;BME280;25829;50.228;18.936;2022-07-25T10:01:12;98576.09;;;33.66;29.37
40117;BME280;25829;50.228;18.936;2022-07-25T10:04:20;98572.03;;;33.44;29.52
40117;BME280;25829;50.228;18.936;2022-07-25T10:07:22;98567.44;;;32.82;28.84
40117;BME280;25829;50.228;18.936;2022-07-25T10:10:32;98566.72;;;32.09;30.01
40117;BME280;25829;50.228;18.936;2022-07-25T10:13:36;98555.50;;;31.58;31.14
40117;BME280;25829;50.228;18.936;2022-07-25T10:16:59;98566.81;;;31.07;30.95
40117;BME280;25829;50.228;18.936;2022-07-25T10:20:07;98560.75;;;30.65;29.17
40117;BME280;25829;50.228;18.936;2022-07-25T10:23:24;98552.25;;;30.33;29.59
40117;BME280;25829;50.228;18.936;2022-07-25T10:26:25;98551.91;;;29.81;30.36
40117;BME280;25829;50.228;18.936;2022-07-25T10:29:33;98539.47;;;29.38;30.13
40117;BME280;25829;50.228;18.936;2022-07-25T10:32:34;98543.03;;;28.91;28.70
40117;BME280;25829;50.228;18.936;2022-07-25T10:35:35;98546.72;;;28.48;30.64
40117;BME280;25829;50.228;18.936;2022-07-25T10:38:49;98538.28;;;28.33;30.99
40117;BME280;25829;50.228;18.936;2022-07-25T10:41:54;98531.47;;;28.00;30.18
40117;BME280;25829;50.228;18.936;2022-07-25T10:45:01;98536.44;;;27.81;31.02
40117;BME280;25829;50.228;18.936;2022-07-25T10:48:31;98530.34;;;27.58;30.71
40117;BME280;25829;50.228;18.936;2022-07-25T10:51:34;98525.88;;;27.36;31.36
40117;BME280;25829;50.228;18.936;2022-07-25T10:54:40;98528.38;;;27.15;30.80
40117;BME280;25829;50.228;18.936;2022-07-25T10:57:44;98519.53;;;27.01;31.73
40117;BME280;25829;50.228;18.936;2022-07-25T11:00:45;98506.63;;;26.98;32.50
40117;BME280;25829;50.228;18.936;2022-07-25T11:03:46;98512.84;;;26.98;31.82
40117;BME280;25829;50.228;18.936;2022-07-25T11:06:47;98514.28;;;26.96;33.02
40117;BME280;25829;50.228;18.936;2022-07-25T11:09:59;98506.94;;;26.96;31.91
40117;BME280;25829;50.228;18.936;2022-07-25T11:13:02;98511.22;;;26.88;32.18
40117;BME280;25829;50.228;18.936;2022-07-25T11:16:03;98492.41;;;26.83;32.54
40117;BME280;25829;50.228;18.936;2022-07-25T11:19:28;98496.72;;;26.84;31.58
40117;BME280;25829;50.228;18.936;2022-07-25T11:22:30;98492.25;;;26.80;31.20
40117;BME280;25829;50.228;18.936;2022-07-25T11:25:31;98476.63;;;26.68;32.02
40117;BME280;25829;50.228;18.936;2022-07-25T11:28:46;98467.22;;;26.65;31.32
40117;BME280;25829;50.228;18.936;2022-07-25T11:31:55;98471.66;;;26.61;31.41
40117;BME280;25829;50.228;18.936;2022-07-25T11:34:58;98460.34;;;26.59;32.00
40117;BME280;25829;50.228;18.936;2022-07-25T11:38:00;98458.91;;;26.62;32.34
40117;BME280;25829;50.228;18.936;2022-07-25T11:41:32;98456.22;;;26.62;31.85
40117;BME280;25829;50.228;18.936;2022-07-25T11:44:37;98450.00;;;26.61;32.79
40117;BME280;25829;50.228;18.936;2022-07-25T11:47:38;98449.03;;;26.57;32.06
40117;BME280;25829;50.228;18.936;2022-07-25T11:50:41;98441.38;;;26.51;31.87
40117;BME280;25829;50.228;18.936;2022-07-25T11:53:47;98431.69;;;26.50;32.13
40117;BME280;25829;50.228;18.936;2022-07-25T11:56:49;98430.56;;;26.51;31.31
40117;BME280;25829;50.228;18.936;2022-07-25T11:59:50;98426.03;;;26.37;31.52
40117;BME280;25829;50.228;18.936;2022-07-25T12:02:53;98427.59;;;26.38;32.69
40117;BME280;25829;50.228;18.936;2022-07-25T12:05:54;98426.69;;;26.43;31.89
40117;BME280;25829;50.228;18.936;2022-07-25T12:08:55;98415.72;;;26.48;32.53
40117;BME280;25829;50.228;18.936;2022-07-25T12:12:03;98408.59;;;26.52;32.36
40117;BME280;25829;50.228;18.936;2022-07-25T12:15:05;98406.06;;;26.56;32.66
40117;BME280;25829;50.228;18.936;2022-07-25T12:18:12;98396.53;;;26.58;31.78
40117;BME280;25829;50.228;18.936;2022-07-25T12:21:12;98405.13;;;26.60;32.11
40117;BME280;25829;50.228;18.936;2022-07-25T12:24:13;98401.63;;;26.60;31.94
40117;BME280;25829;50.228;18.936;2022-07-25T12:27:14;98389.69;;;26.61;31.88
40117;BME280;25829;50.228;18.936;2022-07-25T12:30:15;98380.28;;;26.58;31.50
40117;BME280;25829;50.228;18.936;2022-07-25T12:33:16;98383.94;;;26.62;31.80
40117;BME280;25829;50.228;18.936;2022-07-25T12:36:17;98384.94;;;26.67;31.17
40117;BME280;25829;50.228;18.936;2022-07-25T12:39:27;98365.66;;;26.68;30.21
40117;BME280;25829;50.228;18.936;2022-07-25T12:42:28;98376.81;;;26.67;30.63
40117;BME280;25829;50.228;18.936;2022-07-25T12:45:29;98370.59;;;26.66;30.71
40117;BME280;25829;50.228;18.936;2022-07-25T12:48:30;98367.75;;;26.71;30.95
40117;BME280;25829;50.228;18.936;2022-07-25T12:51:31;98349.44;;;26.77;30.70
40117;BME280;25829;50.228;18.936;2022-07-25T12:54:32;98360.91;;;26.82;30.32
40117;BME280;25829;50.228;18.936;2022-07-25T12:57:34;98354.53;;;26.87;30.02
40117;BME280;25829;50.228;18.936;2022-07-25T13:00:35;98356.78;;;26.85;30.52
40117;BME280;25829;50.228;18.936;2022-07-25T13:03:36;98349.28;;;26.82;29.69
40117;BME280;25829;50.228;18.936;2022-07-25T13:06:40;98345.78;;;26.81;30.37
40117;BME280;25829;50.228;18.936;2022-07-25T13:09:41;98344.19;;;26.80;30.21
40117;BME280;25829;50.228;18.936;2022-07-25T13:12:43;98334.97;;;26.81;29.13
40117;BME280;25829;50.228;18.936;2022-07-25T13:15:46;98333.03;;;26.82;30.26
40117;BME280;25829;50.228;18.936;2022-07-25T13:18:48;98333.34;;;26.80;28.82
40117;BME280;25829;50.228;18.936;2022-07-25T13:21:48;98327.78;;;26.77;29.45
40117;BME280;25829;50.228;18.936;2022-07-25T13:24:52;98318.06;;;26.76;29.07
40117;BME280;25829;50.228;18.936;2022-07-25T13:27:53;98318.88;;;26.76;29.76
40117;BME280;25829;50.228;18.936;2022-07-25T13:30:54;98318.88;;;26.76;29.71
40117;BME280;25829;50.228;18.936;2022-07-25T13:33:55;98309.66;;;26.77;29.49
40117;BME280;25829;50.228;18.936;2022-07-25T13:36:56;98307.41;;;26.79;29.94
40117;BME280;25829;50.228;18.936;2022-07-25T13:39:58;98316.03;;;26.81;30.26
40117;BME280;25829;50.228;18.936;2022-07-25T13:42:59;98295.16;;;26.82;30.21
40117;BME280;25829;50.228;18.936;2022-07-25T13:46:00;98296.44;;;26.84;29.87
40117;BME280;25829;50.228;18.936;2022-07-25T13:49:01;98295.66;;;26.84;29.71
40117;BME280;25829;50.228;18.936;2022-07-25T13:52:02;98290.38;;;26.87;29.43
40117;BME280;25829;50.228;18.936;2022-07-25T13:55:04;98296.25;;;26.89;29.68
40117;BME280;25829;50.228;18.936;2022-07-25T13:58:05;98292.44;;;26.91;30.53
40117;BME280;25829;50.228;18.936;2022-07-25T14:01:06;98279.06;;;26.94;29.80
40117;BME280;25829;50.228;18.936;2022-07-25T14:04:08;98260.59;;;26.96;30.26
40117;BME280;25829;50.228;18.936;2022-07-25T14:07:09;98263.78;;;26.98;30.09
40117;BME280;25829;50.228;18.936;2022-07-25T14:10:10;98264.56;;;26.99;30.96
40117;BME280;25829;50.228;18.936;2022-07-25T14:13:14;98260.25;;;26.98;30.85
40117;BME280;25829;50.228;18.936;2022-07-25T14:16:27;98252.97;;;26.98;30.42
40117;BME280;25829;50.228;18.936;2022-07-25T14:19:27;98247.22;;;27.00;31.04
40117;BME280;25829;50.228;18.936;2022-07-25T14:22:28;98244.19;;;27.01;30.31
40117;BME280;25829;50.228;18.936;2022-07-25T14:25:38;98245.63;;;26.99;30.14
40117;BME280;25829;50.228;18.936;2022-07-25T14:28:39;98239.09;;;27.00;30.63
40117;BME280;25829;50.228;18.936;2022-07-25T14:31:39;98238.28;;;26.99;30.85
40117;BME280;25829;50.228;18.936;2022-07-25T14:34:40;98236.38;;;27.00;30.43
40117;BME280;25829;50.228;18.936;2022-07-25T14:37:41;98233.69;;;27.00;30.36
40117;BME280;25829;50.228;18.936;2022-07-25T14:40:48;98226.50;;;27.04;30.17
40117;BME280;25829;50.228;18.936;2022-07-25T14:43:49;98221.56;;;27.06;30.13
40117;BME280;25829;50.228;18.936;2022-07-25T14:46:50;98225.25;;;27.10;30.40
40117;BME280;25829;50.228;18.936;2022-07-25T14:49:52;98223.81;;;27.13;30.11
40117;BME280;25829;50.228;18.936;2022-07-25T14:52:53;98213.78;;;27.13;30.18
40117;BME280;25829;50.228;18.936;2022-07-25T14:55:53;98217.75;;;27.16;30.29
40117;BME280;25829;50.228;18.936;2022-07-25T14:58:54;98197.19;;;27.15;30.53
40117;BME280;25829;50.228;18.936;2022-07-25T15:01:55;98199.44;;;27.13;30.04
40117;BME280;25829;50.228;18.936;2022-07-25T15:04:56;98201.81;;;27.14;30.74
40117;BME280;25829;50.228;18.936;2022-07-25T15:08:06;98200.38;;;27.17;30.83
40117;BME280;25829;50.228;18.936;2022-07-25T15:11:10;98195.09;;;27.20;30.55
40117;BME280;25829;50.228;18.936;2022-07-25T15:14:11;98184.44;;;27.24;30.62
40117;BME280;25829;50.228;18.936;2022-07-25T15:17:12;98176.28;;;27.24;31.04
40117;BME280;25829;50.228;18.936;2022-07-25T15:20:13;98177.44;;;27.23;30.94
40117;BME280;25829;50.228;18.936;2022-07-25T15:23:16;98166.44;;;27.19;30.93
40117;BME280;25829;50.228;18.936;2022-07-25T15:26:17;98172.03;;;27.14;29.69
40117;BME280;25829;50.228;18.936;2022-07-25T15:29:18;98170.44;;;27.13;30.69
40117;BME280;25829;50.228;18.936;2022-07-25T15:32:21;98158.81;;;27.13;30.82
40117;BME280;25829;50.228;18.936;2022-07-25T15:35:22;98163.91;;;27.14;31.16
40117;BME280;25829;50.228;18.936;2022-07-25T15:38:24;98156.91;;;27.13;30.99
40117;BME280;25829;50.228;18.936;2022-07-25T15:41:29;98154.50;;;27.11;31.09
40117;BME280;25829;50.228;18.936;2022-07-25T15:44:30;98149.44;;;27.10;31.03
40117;BME280;25829;50.228;18.936;2022-07-25T15:47:32;98154.66;;;27.06;31.33
40117;BME280;25829;50.228;18.936;2022-07-25T15:50:38;98146.06;;;27.04;31.29
40117;BME280;25829;50.228;18.936;2022-07-25T15:53:39;98140.19;;;27.02;31.70
40117;BME280;25829;50.228;18.936;2022-07-25T15:56:46;98145.41;;;27.07;31.31
40117;BME280;25829;50.228;18.936;2022-07-25T15:59:47;98140.78;;;27.08;31.49